createdAt,value
2023-02-28T00:01:38.885Z,3.60
2023-02-28T00:04:10.374Z,3.23
2023-02-28T00:06:41.056Z,4.87
2023-02-28T00:09:11.094Z,3.27
2023-02-28T00:11:41.127Z,3.23
2023-02-28T00:14:09.236Z,3.83
2023-02-28T00:16:37.431Z,3.37
2023-02-28T00:19:05.620Z,5.03
2023-02-28T00:21:34.092Z,3.53
2023-02-28T00:24:04.276Z,3.73
2023-02-28T00:26:34.182Z,2.77
2023-02-28T00:29:03.609Z,3.83
2023-02-28T00:31:31.637Z,4.20
2023-02-28T00:33:59.727Z,2.97
2023-02-28T00:36:28.030Z,3.10
2023-02-28T00:38:56.097Z,3.97
2023-02-28T00:41:24.251Z,5.03
2023-02-28T00:43:52.578Z,4.67
2023-02-28T00:46:24.777Z,4.00
2023-02-28T00:48:52.838Z,3.40
2023-02-28T00:51:20.935Z,5.50
2023-02-28T00:53:48.995Z,3.20
2023-02-28T00:56:18.820Z,4.13
2023-02-28T00:58:46.809Z,4.23
2023-02-28T01:01:16.454Z,3.57
2023-02-28T01:03:46.147Z,5.10
2023-02-28T01:06:16.102Z,3.00
2023-02-28T01:08:44.412Z,3.80
2023-02-28T01:11:13.734Z,3.87
2023-02-28T01:13:43.568Z,4.33
2023-02-28T01:16:11.864Z,3.17
2023-02-28T01:18:43.500Z,4.80
2023-02-28T01:21:16.532Z,3.70
2023-02-28T01:23:44.910Z,4.97
2023-02-28T01:26:16.190Z,4.87
2023-02-28T01:28:44.612Z,5.23
2023-02-28T01:31:13.761Z,3.90
2023-02-28T01:33:42.056Z,6.07
2023-02-28T01:36:14.744Z,5.73
2023-02-28T01:38:43.289Z,5.43
2023-02-28T01:41:18.825Z,7.17
2023-02-28T01:44:00.032Z,4.53
2023-02-28T01:46:30.079Z,5.57
2023-02-28T01:49:07.804Z,4.73
2023-02-28T01:51:47.375Z,4.90
2023-02-28T01:54:18.676Z,5.43
2023-02-28T01:56:57.418Z,6.70
2023-02-28T01:59:37.448Z,4.17
2023-02-28T02:02:08.497Z,5.53
2023-02-28T02:04:42.418Z,4.43
2023-02-28T02:07:13.136Z,5.23
2023-02-28T02:09:41.222Z,4.03
2023-02-28T02:12:23.828Z,6.07
2023-02-28T02:15:04.183Z,4.73
2023-02-28T02:17:39.530Z,4.73
2023-02-28T02:20:59.101Z,4.73
2023-02-28T02:23:59.208Z,4.63
2023-02-28T02:26:54.468Z,4.73
2023-02-28T02:29:55.123Z,4.97
2023-02-28T02:32:44.664Z,5.30
2023-02-28T02:35:18.390Z,4.60
2023-02-28T02:37:53.524Z,4.00
2023-02-28T02:40:24.304Z,5.00
2023-02-28T02:42:58.111Z,5.27
2023-02-28T02:45:30.794Z,4.97
2023-02-28T02:48:01.350Z,4.40
2023-02-28T02:50:36.316Z,4.67
2023-02-28T02:53:10.400Z,6.23
2023-02-28T02:55:43.657Z,6.17
2023-02-28T02:58:16.803Z,5.33
2023-02-28T03:00:49.858Z,3.53
2023-02-28T03:03:21.757Z,4.00
2023-02-28T03:05:52.932Z,5.73
2023-02-28T03:08:20.967Z,4.17
2023-02-28T03:10:52.584Z,3.60
2023-02-28T03:13:47.052Z,3.47
2023-02-28T03:16:30.821Z,4.50
2023-02-28T03:19:09.054Z,4.30
2023-02-28T03:21:44.036Z,3.07
2023-02-28T03:24:16.056Z,3.30
2023-02-28T03:26:50.708Z,3.67
2023-02-28T03:29:30.835Z,3.07
2023-02-28T03:32:06.449Z,3.93
2023-02-28T03:34:39.675Z,4.43
2023-02-28T03:37:14.360Z,3.50
2023-02-28T03:39:46.502Z,4.30
2023-02-28T03:42:17.807Z,2.67
2023-02-28T03:44:48.700Z,5.13
2023-02-28T03:47:24.365Z,4.33
2023-02-28T03:49:56.679Z,3.70
2023-02-28T03:52:34.100Z,3.30
2023-02-28T03:55:08.141Z,3.60
2023-02-28T03:57:41.331Z,3.00
2023-02-28T04:00:14.831Z,4.13
2023-02-28T04:02:44.563Z,4.13
2023-02-28T04:05:12.852Z,4.07
2023-02-28T04:07:42.346Z,4.10
2023-02-28T04:10:13.529Z,3.20
2023-02-28T04:12:43.607Z,4.33
2023-02-28T04:15:12.449Z,4.13
2023-02-28T04:17:40.603Z,3.30
2023-02-28T04:20:11.481Z,4.70
2023-02-28T04:22:41.136Z,3.43
2023-02-28T04:25:10.078Z,4.83
2023-02-28T04:27:38.244Z,3.33
2023-02-28T04:30:07.833Z,3.87
2023-02-28T04:32:36.020Z,2.90
2023-02-28T04:35:04.515Z,3.97
2023-02-28T04:37:35.880Z,3.07
2023-02-28T04:40:09.386Z,3.73
2023-02-28T04:42:37.483Z,3.47
2023-02-28T04:45:06.209Z,3.00
2023-02-28T04:47:34.302Z,3.93
2023-02-28T04:50:02.362Z,3.07
2023-02-28T04:52:32.505Z,3.03
2023-02-28T04:55:02.780Z,6.73
2023-02-28T04:57:32.142Z,2.63
2023-02-28T05:00:00.750Z,2.70
2023-02-28T05:02:28.986Z,4.63
2023-02-28T05:04:57.210Z,4.43
2023-02-28T05:07:25.425Z,2.67
2023-02-28T05:09:54.084Z,4.53
2023-02-28T05:12:23.847Z,4.57
2023-02-28T05:14:54.010Z,3.40
2023-02-28T05:17:24.016Z,3.23
2023-02-28T05:19:52.833Z,4.23
2023-02-28T05:22:23.902Z,3.73
2023-02-28T05:24:51.983Z,3.10
2023-02-28T05:27:20.406Z,3.13
2023-02-28T05:29:48.459Z,2.53
2023-02-28T05:32:17.844Z,2.87
2023-02-28T05:34:46.265Z,2.93
2023-02-28T05:37:16.636Z,4.03
2023-02-28T05:39:45.200Z,6.00
2023-02-28T05:42:13.560Z,3.00
2023-02-28T05:44:41.858Z,3.37
2023-02-28T05:47:16.327Z,3.60
2023-02-28T05:49:45.944Z,3.60
2023-02-28T05:52:19.863Z,3.60
2023-02-28T05:54:51.430Z,3.37
2023-02-28T05:57:24.571Z,3.70
2023-02-28T05:59:52.867Z,4.93
2023-02-28T06:02:21.140Z,3.70
2023-02-28T06:04:51.210Z,2.97
2023-02-28T06:07:19.760Z,2.50
2023-02-28T06:09:50.550Z,3.03
2023-02-28T06:12:18.911Z,3.63
2023-02-28T06:14:51.707Z,3.87
2023-02-28T06:17:19.783Z,3.17
2023-02-28T06:19:50.412Z,3.93
2023-02-28T06:22:19.771Z,3.20
2023-02-28T06:24:49.838Z,3.33
2023-02-28T06:27:22.090Z,6.17
2023-02-28T06:30:02.471Z,4.60
2023-02-28T06:32:30.732Z,2.80
2023-02-28T06:34:59.074Z,2.80
2023-02-28T06:37:28.923Z,3.57
2023-02-28T06:39:58.305Z,6.67
2023-02-28T06:42:29.900Z,5.70
2023-02-28T06:44:58.554Z,5.53
2023-02-28T06:47:26.890Z,5.90
2023-02-28T06:49:56.828Z,4.37
2023-02-28T06:52:28.873Z,3.50
2023-02-28T06:55:02.029Z,3.27
2023-02-28T06:57:35.607Z,2.83
2023-02-28T07:00:08.924Z,2.70
2023-02-28T07:02:39.910Z,3.57
2023-02-28T07:05:09.210Z,4.93
2023-02-28T07:07:41.518Z,3.80
2023-02-28T07:10:11.826Z,4.63
2023-02-28T07:12:40.374Z,4.77
2023-02-28T07:15:09.504Z,4.13
2023-02-28T07:17:37.493Z,4.43
2023-02-28T07:20:06.346Z,3.53
2023-02-28T07:22:37.968Z,4.93
2023-02-28T07:25:08.646Z,3.40
2023-02-28T07:27:36.836Z,2.90
2023-02-28T07:30:05.689Z,3.50
2023-02-28T07:32:38.950Z,2.73
2023-02-28T07:35:07.659Z,3.03
2023-02-28T07:37:39.058Z,3.07
2023-02-28T07:40:12.287Z,4.30
2023-02-28T07:42:40.922Z,3.37
2023-02-28T07:45:12.694Z,3.37
2023-02-28T07:47:41.146Z,4.27
2023-02-28T07:50:11.841Z,3.40
2023-02-28T07:52:41.760Z,5.77
2023-02-28T07:55:12.080Z,3.30
2023-02-28T07:57:40.310Z,3.97
2023-02-28T08:00:11.792Z,3.80
2023-02-28T08:02:39.868Z,4.57
2023-02-28T08:05:09.564Z,3.30
2023-02-28T08:07:37.821Z,3.43
2023-02-28T08:10:07.374Z,4.33
2023-02-28T08:12:37.067Z,3.97
2023-02-28T08:15:05.775Z,4.73
2023-02-28T08:17:35.396Z,3.97
2023-02-28T08:20:05.000Z,11.07
2023-02-28T08:22:33.145Z,5.73
2023-02-28T08:25:01.137Z,6.20
2023-02-28T08:27:29.178Z,4.37
2023-02-28T08:29:58.482Z,5.70
2023-02-28T08:32:30.055Z,3.63
2023-02-28T08:34:58.758Z,4.07
2023-02-28T08:37:27.230Z,3.97
2023-02-28T08:39:56.488Z,4.33
2023-02-28T08:56:58.499Z,5.53
2023-02-28T08:59:26.481Z,7.03
2023-02-28T09:01:54.406Z,5.10
2023-02-28T09:04:24.963Z,6.47
2023-02-28T09:06:53.405Z,4.53
2023-02-28T09:09:21.387Z,5.27
2023-02-28T09:11:49.444Z,5.13
2023-02-28T09:14:19.414Z,7.27
2023-02-28T09:16:47.551Z,4.77
2023-02-28T09:19:15.899Z,4.10
2023-02-28T09:21:44.101Z,4.77
2023-02-28T09:24:15.198Z,8.10
2023-02-28T09:26:55.880Z,4.47
2023-02-28T09:29:32.602Z,6.00
2023-02-28T09:32:00.942Z,5.07
2023-02-28T09:34:31.943Z,4.27
2023-02-28T09:37:00.377Z,7.73
2023-02-28T09:39:32.610Z,5.03
2023-02-28T09:42:00.963Z,5.30
2023-02-28T09:44:33.748Z,7.23
2023-02-28T09:47:07.620Z,6.27
2023-02-28T09:49:45.148Z,4.13
2023-02-28T09:52:15.858Z,4.33
2023-02-28T09:54:44.166Z,6.63
2023-02-28T09:57:21.390Z,5.40
2023-02-28T10:00:10.796Z,4.30
2023-02-28T10:03:01.190Z,5.20
2023-02-28T10:05:32.625Z,4.43
2023-02-28T10:08:09.035Z,4.27
2023-02-28T10:10:41.344Z,4.67
2023-02-28T10:13:17.306Z,4.90
2023-02-28T10:15:49.384Z,4.30
2023-02-28T10:18:23.264Z,4.73
2023-02-28T10:20:52.716Z,6.17
2023-02-28T10:23:25.512Z,4.63
2023-02-28T10:25:59.011Z,4.73
2023-02-28T10:28:28.593Z,4.30
2023-02-28T10:30:59.289Z,5.50
2023-02-28T10:33:32.022Z,4.93
2023-02-28T10:36:00.451Z,5.27
2023-02-28T10:38:30.245Z,6.00
2023-02-28T10:41:09.932Z,4.57
2023-02-28T10:43:38.816Z,4.67
2023-02-28T10:46:16.324Z,4.80
2023-02-28T10:48:48.971Z,4.60
2023-02-28T10:51:18.398Z,6.10
2023-02-28T10:54:02.346Z,5.03
2023-02-28T10:56:32.298Z,4.33
2023-02-28T10:59:02.650Z,5.07
2023-02-28T11:01:40.848Z,5.37
2023-02-28T11:04:33.773Z,6.47
2023-02-28T11:07:03.915Z,5.67
2023-02-28T11:09:36.616Z,6.33
2023-02-28T11:12:07.164Z,5.60
2023-02-28T11:14:37.861Z,5.43
2023-02-28T11:17:17.073Z,4.50
2023-02-28T11:19:49.664Z,6.77
2023-02-28T11:22:22.714Z,6.20
2023-02-28T11:24:54.030Z,6.87
2023-02-28T11:27:44.269Z,6.45
2023-02-28T11:30:29.608Z,4.43
2023-02-28T11:32:59.419Z,7.85
2023-02-28T11:35:32.434Z,5.70
2023-02-28T11:38:00.868Z,9.23
2023-02-28T11:40:36.494Z,8.47
2023-02-28T11:43:15.920Z,6.23
2023-02-28T11:45:56.257Z,5.30
2023-02-28T11:48:29.685Z,5.70
2023-02-28T11:51:08.851Z,6.40
2023-02-28T11:54:10.779Z,6.87
2023-02-28T11:56:41.554Z,5.80
2023-02-28T11:59:36.189Z,6.57
2023-02-28T12:02:28.841Z,5.47
2023-02-28T12:05:13.093Z,5.77
2023-02-28T12:07:48.797Z,6.43
2023-02-28T12:10:23.324Z,5.13
2023-02-28T12:13:01.063Z,6.97
2023-02-28T12:15:59.204Z,5.47
2023-02-28T12:18:44.450Z,4.13
2023-02-28T12:21:23.044Z,7.53
2023-02-28T12:24:13.585Z,6.80
2023-02-28T12:26:43.965Z,5.60
2023-02-28T12:29:18.149Z,4.60
2023-02-28T12:31:52.159Z,5.87
2023-02-28T12:34:24.619Z,6.23
2023-02-28T12:36:55.044Z,8.03
2023-02-28T12:39:28.023Z,5.63
2023-02-28T12:42:01.462Z,5.97
2023-02-28T12:44:35.752Z,6.03
2023-02-28T12:47:06.906Z,5.13
2023-02-28T12:49:38.939Z,6.80
2023-02-28T12:52:12.027Z,9.33
2023-02-28T12:54:49.287Z,7.33
2023-02-28T12:57:24.556Z,6.23
2023-02-28T12:59:56.195Z,6.95
2023-02-28T13:02:56.070Z,7.37
2023-02-28T13:06:00.281Z,5.70
2023-02-28T13:08:59.303Z,6.13
2023-02-28T13:11:30.252Z,7.23
2023-02-28T13:14:04.130Z,6.17
2023-02-28T13:16:58.354Z,6.77
2023-02-28T13:19:29.196Z,7.27
2023-02-28T13:21:59.854Z,6.73
2023-02-28T13:24:50.397Z,8.57
2023-02-28T13:27:41.512Z,6.57
2023-02-28T13:30:47.018Z,8.67
2023-02-28T13:33:28.979Z,7.20
2023-02-28T13:36:27.307Z,9.07
2023-02-28T13:38:56.522Z,7.03
2023-02-28T13:41:47.700Z,6.73
2023-02-28T13:44:18.772Z,6.97
2023-02-28T13:47:30.419Z,6.77
2023-02-28T13:50:25.049Z,6.27
2023-02-28T13:53:05.972Z,7.80
2023-02-28T13:55:40.253Z,6.67
2023-02-28T13:58:41.217Z,7.13
2023-02-28T14:01:24.944Z,8.60
2023-02-28T14:04:33.559Z,7.40
2023-02-28T14:07:03.084Z,9.03
2023-02-28T14:09:35.008Z,10.00
2023-02-28T14:12:35.695Z,8.40
2023-02-28T14:15:27.276Z,6.83
2023-02-28T14:17:57.427Z,5.80
2023-02-28T14:20:32.032Z,5.53
2023-02-28T14:23:11.099Z,6.97
2023-02-28T14:25:48.116Z,6.03
2023-02-28T14:28:27.302Z,6.17
2023-02-28T14:31:03.388Z,5.97
2023-02-28T14:33:44.471Z,5.57
2023-02-28T14:36:18.717Z,6.47
2023-02-28T14:38:51.908Z,6.47
2023-02-28T14:41:26.574Z,7.00
2023-02-28T14:43:58.170Z,6.53
2023-02-28T14:46:32.876Z,7.17
2023-02-28T14:49:01.068Z,7.40
2023-02-28T14:51:29.675Z,7.97
2023-02-28T14:54:01.765Z,5.83
2023-02-28T14:56:38.012Z,7.53
2023-02-28T14:59:09.718Z,6.93
2023-02-28T15:01:39.739Z,8.20
2023-02-28T15:04:08.897Z,8.37
2023-02-28T15:06:42.865Z,6.87
2023-02-28T15:09:17.359Z,8.20
2023-02-28T15:11:50.848Z,6.50
2023-02-28T15:14:25.479Z,5.53
2023-02-28T15:17:00.820Z,6.57
2023-02-28T15:19:34.137Z,7.13
2023-02-28T15:22:06.241Z,6.40
2023-02-28T15:24:41.017Z,7.87
2023-02-28T15:27:17.654Z,8.13
2023-02-28T15:29:50.309Z,7.73
2023-02-28T15:32:29.533Z,6.60
2023-02-28T15:34:58.893Z,5.63
2023-02-28T15:37:41.807Z,6.10
2023-02-28T15:40:19.127Z,6.53
2023-02-28T15:43:02.932Z,5.17
2023-02-28T15:45:42.760Z,8.57
2023-02-28T15:48:32.133Z,8.67
2023-02-28T15:51:05.107Z,6.33
2023-02-28T15:53:40.105Z,5.40
2023-02-28T15:56:18.544Z,5.67
2023-02-28T15:58:49.566Z,7.07
2023-02-28T16:01:26.832Z,6.73
2023-02-28T16:03:59.538Z,8.13
2023-02-28T16:07:09.188Z,7.17
2023-02-28T16:09:38.914Z,10.10
2023-02-28T16:12:08.464Z,8.57
2023-02-28T16:14:40.042Z,6.70
2023-02-28T16:17:16.423Z,10.03
2023-02-28T16:19:46.551Z,6.17
2023-02-28T16:22:15.214Z,6.57
2023-02-28T16:24:43.836Z,7.87
2023-02-28T16:27:20.873Z,6.70
2023-02-28T16:29:50.515Z,6.50
2023-02-28T16:32:21.161Z,6.67
2023-02-28T16:34:51.385Z,6.43
2023-02-28T16:37:21.394Z,5.67
2023-02-28T16:39:51.024Z,8.07
2023-02-28T16:42:25.994Z,6.67
2023-02-28T16:44:55.158Z,8.17
2023-02-28T16:47:23.105Z,7.57
2023-02-28T16:49:52.691Z,8.77
2023-02-28T16:52:21.080Z,7.50
2023-02-28T16:54:49.651Z,8.77
2023-02-28T16:57:21.959Z,5.60
2023-02-28T16:59:51.866Z,8.40
2023-02-28T17:02:21.478Z,8.23
2023-02-28T17:04:50.382Z,7.83
2023-02-28T17:07:19.924Z,6.67
2023-02-28T17:09:48.066Z,7.20
2023-02-28T17:12:16.779Z,7.43
2023-02-28T17:14:44.970Z,8.37
2023-02-28T17:17:18.930Z,11.00
2023-02-28T17:19:47.592Z,9.33
2023-02-28T17:22:16.075Z,11.23
2023-02-28T17:24:46.420Z,8.03
2023-02-28T17:27:15.447Z,8.07
2023-02-28T17:29:43.735Z,7.53
2023-02-28T17:32:19.209Z,8.00
2023-02-28T17:34:49.047Z,11.20
2023-02-28T17:37:18.390Z,10.47
2023-02-28T17:39:48.258Z,10.80
2023-02-28T17:42:17.813Z,12.37
2023-02-28T17:44:46.005Z,10.30
2023-02-28T17:47:21.772Z,8.23
2023-02-28T17:49:57.656Z,7.00
2023-02-28T17:52:32.643Z,8.67
2023-02-28T17:55:02.320Z,7.43
2023-02-28T17:57:30.897Z,8.40
2023-02-28T17:59:59.209Z,8.30
2023-02-28T18:02:28.393Z,8.50
2023-02-28T18:04:56.863Z,8.33
2023-02-28T18:07:26.272Z,8.77
2023-02-28T18:09:54.366Z,7.63
2023-02-28T18:12:23.906Z,6.83
2023-02-28T18:14:52.272Z,7.23
2023-02-28T18:17:20.357Z,8.17
2023-02-28T18:19:48.796Z,7.23
2023-02-28T18:22:16.858Z,7.63
2023-02-28T18:24:44.967Z,8.57
2023-02-28T18:27:13.313Z,11.43
2023-02-28T18:29:43.865Z,15.50
2023-02-28T18:32:12.016Z,15.07
2023-02-28T18:34:40.470Z,19.03
2023-02-28T18:37:12.080Z,7.37
2023-02-28T18:39:41.551Z,6.87
2023-02-28T18:42:12.791Z,6.40
2023-02-28T18:44:43.070Z,8.13
2023-02-28T18:47:11.649Z,8.50
2023-02-28T18:49:50.366Z,5.97
2023-02-28T18:52:26.023Z,7.33
2023-02-28T18:54:54.228Z,7.97
2023-02-28T18:57:23.801Z,8.70
2023-02-28T19:00:24.134Z,7.63
2023-02-28T19:02:54.024Z,6.57
2023-02-28T19:05:22.400Z,7.30
2023-02-28T19:07:51.269Z,8.87
2023-02-28T19:10:20.149Z,7.97
2023-02-28T19:12:53.578Z,6.70
2023-02-28T19:16:00.850Z,9.10
2023-02-28T19:18:40.589Z,7.83
2023-02-28T19:21:10.415Z,6.73
2023-02-28T19:23:39.375Z,7.57
2023-02-28T19:26:12.336Z,8.67
2023-02-28T19:28:41.829Z,8.33
2023-02-28T19:31:16.613Z,8.23
2023-02-28T19:33:45.323Z,7.97
2023-02-28T19:36:15.116Z,8.90
2023-02-28T19:38:44.727Z,7.37
2023-02-28T19:41:14.700Z,11.57
2023-02-28T19:43:43.148Z,8.73
2023-02-28T19:46:13.730Z,7.97
2023-02-28T19:48:44.948Z,15.73
2023-02-28T19:51:15.235Z,9.67
2023-02-28T19:53:45.055Z,8.30
2023-02-28T19:56:13.542Z,9.37
2023-02-28T19:58:42.030Z,7.63
2023-02-28T20:01:12.209Z,8.93
2023-02-28T20:03:43.223Z,8.47
2023-02-28T20:06:15.191Z,9.80
2023-02-28T20:08:43.845Z,9.40
2023-02-28T20:11:14.538Z,9.27
2023-02-28T20:13:43.614Z,10.03
2023-02-28T20:16:14.177Z,8.70
2023-02-28T20:18:44.951Z,9.77
2023-02-28T20:21:14.995Z,9.77
2023-02-28T20:23:43.713Z,7.70
2023-02-28T20:26:12.893Z,9.47
2023-02-28T20:28:41.662Z,7.93
2023-02-28T20:31:14.577Z,8.53
2023-02-28T20:33:46.834Z,8.60
2023-02-28T20:36:16.071Z,7.80
2023-02-28T20:38:44.488Z,9.40
2023-02-28T20:41:14.084Z,11.87
2023-02-28T20:44:34.001Z,11.17
2023-02-28T20:47:02.512Z,12.83
2023-02-28T20:49:36.321Z,12.20
2023-02-28T20:52:04.987Z,9.40
2023-02-28T20:54:38.872Z,10.67
2023-02-28T20:57:08.800Z,11.23
2023-02-28T20:59:38.901Z,10.70
2023-02-28T21:02:07.150Z,11.53
2023-02-28T21:04:36.741Z,9.70
2023-02-28T21:07:05.027Z,10.63
2023-02-28T21:09:33.555Z,9.57
2023-02-28T21:12:01.706Z,10.67
2023-02-28T21:14:29.852Z,9.97
2023-02-28T21:16:58.006Z,9.07
2023-02-28T21:19:26.021Z,12.00
2023-02-28T21:21:56.402Z,12.03
2023-02-28T21:24:24.924Z,10.47
2023-02-28T21:26:54.143Z,11.00
2023-02-28T21:29:24.862Z,10.90
2023-02-28T21:31:53.739Z,10.33
2023-02-28T21:34:22.186Z,11.10
2023-02-28T21:36:50.356Z,14.97
2023-02-28T21:39:23.548Z,9.87
2023-02-28T21:41:51.854Z,10.37
2023-02-28T21:44:21.438Z,10.30
2023-02-28T21:46:52.278Z,12.03
2023-02-28T21:49:23.686Z,9.77
2023-02-28T21:51:51.921Z,9.70
2023-02-28T21:54:21.407Z,10.00
2023-02-28T21:56:50.541Z,10.60
2023-02-28T21:59:19.537Z,12.83
2023-02-28T22:01:50.953Z,12.60
2023-02-28T22:04:22.552Z,11.60
2023-02-28T22:06:53.028Z,10.27
2023-02-28T22:09:22.617Z,14.47
2023-02-28T22:11:51.371Z,14.93
2023-02-28T22:14:19.516Z,11.53
2023-02-28T22:16:53.896Z,11.97
2023-02-28T22:19:23.862Z,11.70
2023-02-28T22:21:54.622Z,12.83
2023-02-28T22:24:25.017Z,12.13
2023-02-28T22:26:53.855Z,11.73
2023-02-28T22:29:22.409Z,16.40
2023-02-28T22:31:50.724Z,12.17
2023-02-28T22:34:18.840Z,11.43
2023-02-28T22:36:46.857Z,12.20
2023-02-28T22:39:21.397Z,14.27
2023-02-28T22:41:50.833Z,13.63
2023-02-28T22:44:18.958Z,11.97
2023-02-28T22:46:47.054Z,12.67
2023-02-28T22:49:15.269Z,13.00
2023-02-28T22:51:43.349Z,14.23
2023-02-28T22:54:11.838Z,12.67
2023-02-28T22:56:39.883Z,11.73
2023-02-28T22:59:09.325Z,12.93
2023-02-28T23:01:37.379Z,13.93
2023-02-28T23:04:05.843Z,14.80
2023-02-28T23:06:35.580Z,12.37
2023-02-28T23:09:06.526Z,15.17
2023-02-28T23:11:36.394Z,14.43
2023-02-28T23:14:05.001Z,11.73
2023-02-28T23:16:36.818Z,13.83
2023-02-28T23:19:06.291Z,12.77
2023-02-28T23:21:35.433Z,12.70
2023-02-28T23:24:04.920Z,13.70
2023-02-28T23:26:33.940Z,16.30
2023-02-28T23:29:01.909Z,13.00
2023-02-28T23:31:30.008Z,12.23
2023-02-28T23:33:59.456Z,13.90
2023-02-28T23:36:27.928Z,13.83
2023-02-28T23:38:56.318Z,14.50
2023-02-28T23:41:25.763Z,13.57
2023-02-28T23:43:54.789Z,11.87
2023-02-28T23:46:23.399Z,13.57
2023-02-28T23:48:51.686Z,13.57
2023-02-28T23:51:22.970Z,13.33
2023-02-28T23:53:52.789Z,12.67
2023-02-28T23:56:22.585Z,14.87
2023-02-28T23:58:51.319Z,14.73
